sensor_id;sensor_type;location;lat;lon;timestamp;P1;durP1;ratioP1;P2;durP2;ratioP2
40162;SDS011;25881;47.462;19.304;2024-03-22T00:01:52;34.28;;;19.33;;
40162;SDS011;25881;47.462;19.304;2024-03-22T00:04:17;33.00;;;19.35;;
40162;SDS011;25881;47.462;19.304;2024-03-22T00:06:43;33.15;;;19.35;;
40162;SDS011;25881;47.462;19.304;2024-03-22T00:09:12;32.03;;;20.75;;
40162;SDS011;25881;47.462;19.304;2024-03-22T00:11:39;38.05;;;21.15;;
40162;SDS011;25881;47.462;19.304;2024-03-22T00:14:04;33.55;;;20.88;;
40162;SDS011;25881;47.462;19.304;2024-03-22T00:16:29;36.33;;;22.23;;
40162;SDS011;25881;47.462;19.304;2024-03-22T00:18:54;35.27;;;23.20;;
40162;SDS011;25881;47.462;19.304;2024-03-22T00:21:21;37.77;;;23.07;;
40162;SDS011;25881;47.462;19.304;2024-03-22T00:23:46;34.90;;;22.77;;
40162;SDS011;25881;47.462;19.304;2024-03-22T00:26:11;36.30;;;23.60;;
40162;SDS011;25881;47.462;19.304;2024-03-22T00:28:37;45.53;;;23.60;;
40162;SDS011;25881;47.462;19.304;2024-03-22T00:31:02;38.77;;;23.33;;
40162;SDS011;25881;47.462;19.304;2024-03-22T00:33:27;38.50;;;23.77;;
40162;SDS011;25881;47.462;19.304;2024-03-22T00:35:53;37.53;;;23.37;;
40162;SDS011;25881;47.462;19.304;2024-03-22T00:38:18;39.23;;;23.70;;
40162;SDS011;25881;47.462;19.304;2024-03-22T00:40:43;41.57;;;22.10;;
40162;SDS011;25881;47.462;19.304;2024-03-22T00:43:08;40.23;;;22.97;;
40162;SDS011;25881;47.462;19.304;2024-03-22T00:45:33;37.10;;;23.30;;
40162;SDS011;25881;47.462;19.304;2024-03-22T00:47:59;40.53;;;23.90;;
40162;SDS011;25881;47.462;19.304;2024-03-22T00:50:24;34.77;;;22.00;;
40162;SDS011;25881;47.462;19.304;2024-03-22T00:52:50;39.67;;;23.33;;
40162;SDS011;25881;47.462;19.304;2024-03-22T00:55:15;39.08;;;23.73;;
40162;SDS011;25881;47.462;19.304;2024-03-22T00:57:40;36.97;;;23.87;;
40162;SDS011;25881;47.462;19.304;2024-03-22T01:00:06;37.40;;;23.37;;
40162;SDS011;25881;47.462;19.304;2024-03-22T01:02:31;34.25;;;23.05;;
40162;SDS011;25881;47.462;19.304;2024-03-22T01:04:56;39.40;;;24.17;;
40162;SDS011;25881;47.462;19.304;2024-03-22T01:07:21;40.03;;;22.83;;
40162;SDS011;25881;47.462;19.304;2024-03-22T01:09:47;39.40;;;24.07;;
40162;SDS011;25881;47.462;19.304;2024-03-22T01:12:12;42.73;;;23.87;;
40162;SDS011;25881;47.462;19.304;2024-03-22T01:14:37;36.53;;;24.58;;
40162;SDS011;25881;47.462;19.304;2024-03-22T01:17:02;43.67;;;23.83;;
40162;SDS011;25881;47.462;19.304;2024-03-22T01:19:28;36.90;;;24.37;;
40162;SDS011;25881;47.462;19.304;2024-03-22T01:21:53;37.77;;;23.43;;
40162;SDS011;25881;47.462;19.304;2024-03-22T01:24:18;44.10;;;26.65;;
40162;SDS011;25881;47.462;19.304;2024-03-22T01:26:43;53.67;;;29.07;;
40162;SDS011;25881;47.462;19.304;2024-03-22T01:29:08;61.80;;;35.17;;
40162;SDS011;25881;47.462;19.304;2024-03-22T01:31:34;67.97;;;36.60;;
40162;SDS011;25881;47.462;19.304;2024-03-22T01:33:59;75.10;;;41.83;;
40162;SDS011;25881;47.462;19.304;2024-03-22T01:36:24;58.93;;;34.60;;
40162;SDS011;25881;47.462;19.304;2024-03-22T01:38:49;64.60;;;36.53;;
40162;SDS011;25881;47.462;19.304;2024-03-22T01:41:15;58.37;;;32.63;;
40162;SDS011;25881;47.462;19.304;2024-03-22T01:43:40;46.03;;;27.10;;
40162;SDS011;25881;47.462;19.304;2024-03-22T01:46:05;41.23;;;25.20;;
40162;SDS011;25881;47.462;19.304;2024-03-22T01:48:32;41.60;;;26.27;;
40162;SDS011;25881;47.462;19.304;2024-03-22T01:50:58;38.15;;;23.65;;
40162;SDS011;25881;47.462;19.304;2024-03-22T01:53:23;35.20;;;22.40;;
40162;SDS011;25881;47.462;19.304;2024-03-22T01:55:48;36.70;;;22.13;;
40162;SDS011;25881;47.462;19.304;2024-03-22T01:58:14;38.13;;;23.00;;
40162;SDS011;25881;47.462;19.304;2024-03-22T02:00:39;36.25;;;23.20;;
40162;SDS011;25881;47.462;19.304;2024-03-22T02:03:04;38.27;;;24.73;;
40162;SDS011;25881;47.462;19.304;2024-03-22T02:05:29;31.73;;;20.50;;
40162;SDS011;25881;47.462;19.304;2024-03-22T02:07:54;36.17;;;23.47;;
40162;SDS011;25881;47.462;19.304;2024-03-22T02:10:20;35.17;;;22.48;;
40162;SDS011;25881;47.462;19.304;2024-03-22T02:12:45;38.38;;;23.98;;
40162;SDS011;25881;47.462;19.304;2024-03-22T02:15:11;38.63;;;22.17;;
40162;SDS011;25881;47.462;19.304;2024-03-22T02:17:36;38.47;;;21.52;;
40162;SDS011;25881;47.462;19.304;2024-03-22T02:20:01;33.67;;;21.70;;
40162;SDS011;25881;47.462;19.304;2024-03-22T02:22:27;37.95;;;23.70;;
40162;SDS011;25881;47.462;19.304;2024-03-22T02:24:52;36.40;;;22.15;;
40162;SDS011;25881;47.462;19.304;2024-03-22T02:27:18;35.33;;;21.63;;
40162;SDS011;25881;47.462;19.304;2024-03-22T02:29:43;34.83;;;22.40;;
40162;SDS011;25881;47.462;19.304;2024-03-22T02:32:09;39.43;;;22.33;;
40162;SDS011;25881;47.462;19.304;2024-03-22T02:34:34;39.47;;;23.50;;
40162;SDS011;25881;47.462;19.304;2024-03-22T02:36:59;35.70;;;21.70;;
40162;SDS011;25881;47.462;19.304;2024-03-22T02:39:24;38.03;;;22.17;;
40162;SDS011;25881;47.462;19.304;2024-03-22T02:41:50;33.30;;;21.25;;
40162;SDS011;25881;47.462;19.304;2024-03-22T02:44:15;38.15;;;23.20;;
40162;SDS011;25881;47.462;19.304;2024-03-22T02:46:41;36.37;;;21.83;;
40162;SDS011;25881;47.462;19.304;2024-03-22T02:49:06;35.47;;;20.87;;
40162;SDS011;25881;47.462;19.304;2024-03-22T02:51:31;34.20;;;21.47;;
40162;SDS011;25881;47.462;19.304;2024-03-22T02:53:56;32.47;;;21.20;;
40162;SDS011;25881;47.462;19.304;2024-03-22T02:56:21;33.87;;;20.60;;
40162;SDS011;25881;47.462;19.304;2024-03-22T02:58:48;35.10;;;21.27;;
40162;SDS011;25881;47.462;19.304;2024-03-22T03:01:13;33.03;;;21.80;;
40162;SDS011;25881;47.462;19.304;2024-03-22T03:03:39;40.50;;;22.17;;
40162;SDS011;25881;47.462;19.304;2024-03-22T03:06:04;37.30;;;21.90;;
40162;SDS011;25881;47.462;19.304;2024-03-22T03:08:29;35.58;;;21.45;;
40162;SDS011;25881;47.462;19.304;2024-03-22T03:10:55;33.50;;;20.67;;
40162;SDS011;25881;47.462;19.304;2024-03-22T03:13:20;36.20;;;21.17;;
40162;SDS011;25881;47.462;19.304;2024-03-22T03:15:45;32.20;;;21.67;;
40162;SDS011;25881;47.462;19.304;2024-03-22T03:18:10;36.07;;;21.80;;
40162;SDS011;25881;47.462;19.304;2024-03-22T03:20:35;36.13;;;22.40;;
40162;SDS011;25881;47.462;19.304;2024-03-22T03:23:01;35.78;;;22.58;;
40162;SDS011;25881;47.462;19.304;2024-03-22T03:25:26;35.80;;;22.30;;
40162;SDS011;25881;47.462;19.304;2024-03-22T03:27:52;40.70;;;22.42;;
40162;SDS011;25881;47.462;19.304;2024-03-22T03:30:17;34.93;;;21.23;;
40162;SDS011;25881;47.462;19.304;2024-03-22T03:32:42;35.30;;;22.53;;
40162;SDS011;25881;47.462;19.304;2024-03-22T03:35:07;39.77;;;22.90;;
40162;SDS011;25881;47.462;19.304;2024-03-22T03:37:33;39.28;;;23.55;;
40162;SDS011;25881;47.462;19.304;2024-03-22T03:39:58;43.63;;;26.03;;
40162;SDS011;25881;47.462;19.304;2024-03-22T03:42:23;37.10;;;23.83;;
40162;SDS011;25881;47.462;19.304;2024-03-22T03:44:49;39.47;;;24.00;;
40162;SDS011;25881;47.462;19.304;2024-03-22T03:47:14;44.50;;;25.50;;
40162;SDS011;25881;47.462;19.304;2024-03-22T03:49:39;42.03;;;25.93;;
40162;SDS011;25881;47.462;19.304;2024-03-22T03:52:04;40.33;;;24.93;;
40162;SDS011;25881;47.462;19.304;2024-03-22T03:54:30;39.85;;;24.42;;
40162;SDS011;25881;47.462;19.304;2024-03-22T03:56:55;41.30;;;25.13;;
40162;SDS011;25881;47.462;19.304;2024-03-22T03:59:20;36.83;;;24.80;;
40162;SDS011;25881;47.462;19.304;2024-03-22T04:01:45;40.28;;;24.75;;
40162;SDS011;25881;47.462;19.304;2024-03-22T04:04:10;40.10;;;24.33;;
40162;SDS011;25881;47.462;19.304;2024-03-22T04:06:36;37.23;;;23.83;;
40162;SDS011;25881;47.462;19.304;2024-03-22T04:09:01;40.07;;;24.87;;
40162;SDS011;25881;47.462;19.304;2024-03-22T04:11:27;38.33;;;24.77;;
40162;SDS011;25881;47.462;19.304;2024-03-22T04:13:53;39.78;;;25.30;;
40162;SDS011;25881;47.462;19.304;2024-03-22T04:16:18;43.47;;;25.03;;
40162;SDS011;25881;47.462;19.304;2024-03-22T04:18:43;41.30;;;25.52;;
40162;SDS011;25881;47.462;19.304;2024-03-22T04:21:09;38.07;;;24.53;;
40162;SDS011;25881;47.462;19.304;2024-03-22T04:23:34;41.90;;;24.40;;
40162;SDS011;25881;47.462;19.304;2024-03-22T04:25:59;46.93;;;25.77;;
40162;SDS011;25881;47.462;19.304;2024-03-22T04:28:28;51.72;;;27.15;;
40162;SDS011;25881;47.462;19.304;2024-03-22T04:33:18;64.78;;;33.08;;
40162;SDS011;25881;47.462;19.304;2024-03-22T04:35:46;65.63;;;33.00;;
40162;SDS011;25881;47.462;19.304;2024-03-22T04:38:12;53.28;;;29.15;;
40162;SDS011;25881;47.462;19.304;2024-03-22T04:40:37;50.47;;;29.40;;
40162;SDS011;25881;47.462;19.304;2024-03-22T04:43:02;55.27;;;30.80;;
40162;SDS011;25881;47.462;19.304;2024-03-22T04:45:27;48.80;;;26.33;;
40162;SDS011;25881;47.462;19.304;2024-03-22T04:47:52;45.97;;;25.83;;
40162;SDS011;25881;47.462;19.304;2024-03-22T04:50:18;47.37;;;25.70;;
40162;SDS011;25881;47.462;19.304;2024-03-22T04:52:43;41.20;;;24.43;;
40162;SDS011;25881;47.462;19.304;2024-03-22T04:55:08;41.00;;;22.77;;
40162;SDS011;25881;47.462;19.304;2024-03-22T04:57:33;42.80;;;23.50;;
40162;SDS011;25881;47.462;19.304;2024-03-22T04:59:59;39.03;;;22.50;;
40162;SDS011;25881;47.462;19.304;2024-03-22T05:02:24;36.83;;;22.97;;
40162;SDS011;25881;47.462;19.304;2024-03-22T05:04:49;33.72;;;21.05;;
40162;SDS011;25881;47.462;19.304;2024-03-22T05:07:15;33.30;;;20.58;;
40162;SDS011;25881;47.462;19.304;2024-03-22T05:09:40;31.93;;;20.83;;
40162;SDS011;25881;47.462;19.304;2024-03-22T05:12:05;44.63;;;23.00;;
40162;SDS011;25881;47.462;19.304;2024-03-22T05:14:30;31.83;;;20.43;;
40162;SDS011;25881;47.462;19.304;2024-03-22T05:16:56;32.07;;;20.57;;
40162;SDS011;25881;47.462;19.304;2024-03-22T05:19:21;34.67;;;20.20;;
40162;SDS011;25881;47.462;19.304;2024-03-22T05:21:46;35.47;;;21.37;;
40162;SDS011;25881;47.462;19.304;2024-03-22T05:24:11;33.67;;;21.23;;
40162;SDS011;25881;47.462;19.304;2024-03-22T05:26:36;36.90;;;21.93;;
40162;SDS011;25881;47.462;19.304;2024-03-22T05:29:02;41.23;;;22.17;;
40162;SDS011;25881;47.462;19.304;2024-03-22T05:31:27;38.63;;;22.98;;
40162;SDS011;25881;47.462;19.304;2024-03-22T05:33:53;35.33;;;21.08;;
40162;SDS011;25881;47.462;19.304;2024-03-22T05:36:18;38.50;;;21.90;;
40162;SDS011;25881;47.462;19.304;2024-03-22T05:38:43;38.20;;;21.60;;
40162;SDS011;25881;47.462;19.304;2024-03-22T05:41:09;34.13;;;21.92;;
40162;SDS011;25881;47.462;19.304;2024-03-22T05:43:34;35.25;;;21.85;;
40162;SDS011;25881;47.462;19.304;2024-03-22T05:46:00;38.37;;;20.90;;
40162;SDS011;25881;47.462;19.304;2024-03-22T05:48:25;37.37;;;21.67;;
40162;SDS011;25881;47.462;19.304;2024-03-22T05:50:50;35.20;;;22.73;;
40162;SDS011;25881;47.462;19.304;2024-03-22T05:53:17;37.72;;;21.17;;
40162;SDS011;25881;47.462;19.304;2024-03-22T05:55:42;35.17;;;21.73;;
40162;SDS011;25881;47.462;19.304;2024-03-22T05:58:08;36.73;;;22.37;;
40162;SDS011;25881;47.462;19.304;2024-03-22T06:00:34;43.72;;;26.45;;
40162;SDS011;25881;47.462;19.304;2024-03-22T06:02:59;43.30;;;26.43;;
40162;SDS011;25881;47.462;19.304;2024-03-22T06:05:24;45.07;;;27.57;;
40162;SDS011;25881;47.462;19.304;2024-03-22T06:07:50;45.13;;;27.70;;
40162;SDS011;25881;47.462;19.304;2024-03-22T06:10:15;42.50;;;25.67;;
40162;SDS011;25881;47.462;19.304;2024-03-22T06:12:41;43.33;;;25.20;;
40162;SDS011;25881;47.462;19.304;2024-03-22T06:15:07;47.20;;;26.10;;
40162;SDS011;25881;47.462;19.304;2024-03-22T06:17:32;45.03;;;24.88;;
40162;SDS011;25881;47.462;19.304;2024-03-22T06:19:58;40.15;;;24.30;;
40162;SDS011;25881;47.462;19.304;2024-03-22T06:22:24;41.10;;;25.13;;
40162;SDS011;25881;47.462;19.304;2024-03-22T06:24:50;41.57;;;25.00;;
40162;SDS011;25881;47.462;19.304;2024-03-22T06:27:15;42.55;;;26.15;;
40162;SDS011;25881;47.462;19.304;2024-03-22T06:29:40;40.83;;;25.58;;
40162;SDS011;25881;47.462;19.304;2024-03-22T06:32:06;42.13;;;25.70;;
40162;SDS011;25881;47.462;19.304;2024-03-22T06:34:31;43.60;;;27.17;;
40162;SDS011;25881;47.462;19.304;2024-03-22T06:36:56;40.03;;;26.47;;
40162;SDS011;25881;47.462;19.304;2024-03-22T06:39:22;45.17;;;27.48;;
40162;SDS011;25881;47.462;19.304;2024-03-22T06:41:47;49.83;;;25.40;;
40162;SDS011;25881;47.462;19.304;2024-03-22T06:44:12;42.08;;;26.98;;
40162;SDS011;25881;47.462;19.304;2024-03-22T06:46:39;36.88;;;24.90;;
40162;SDS011;25881;47.462;19.304;2024-03-22T06:49:04;40.10;;;26.02;;
40162;SDS011;25881;47.462;19.304;2024-03-22T06:51:29;43.00;;;26.57;;
40162;SDS011;25881;47.462;19.304;2024-03-22T06:53:55;42.53;;;25.05;;
40162;SDS011;25881;47.462;19.304;2024-03-22T06:56:20;40.87;;;24.87;;
40162;SDS011;25881;47.462;19.304;2024-03-22T06:58:46;38.00;;;24.35;;
40162;SDS011;25881;47.462;19.304;2024-03-22T07:01:11;145.95;;;29.63;;
40162;SDS011;25881;47.462;19.304;2024-03-22T07:03:36;53.30;;;25.20;;
40162;SDS011;25881;47.462;19.304;2024-03-22T07:06:02;56.38;;;25.02;;
40162;SDS011;25881;47.462;19.304;2024-03-22T07:08:27;42.63;;;23.95;;
40162;SDS011;25881;47.462;19.304;2024-03-22T07:10:53;40.20;;;24.37;;
40162;SDS011;25881;47.462;19.304;2024-03-22T07:13:19;48.50;;;25.10;;
40162;SDS011;25881;47.462;19.304;2024-03-22T07:15:45;36.28;;;24.30;;
40162;SDS011;25881;47.462;19.304;2024-03-22T07:18:10;38.67;;;25.00;;
40162;SDS011;25881;47.462;19.304;2024-03-22T07:20:35;39.77;;;24.77;;
40162;SDS011;25881;47.462;19.304;2024-03-22T07:23:00;41.27;;;23.93;;
40162;SDS011;25881;47.462;19.304;2024-03-22T07:25:25;35.50;;;24.07;;
40162;SDS011;25881;47.462;19.304;2024-03-22T07:27:51;37.87;;;24.07;;
40162;SDS011;25881;47.462;19.304;2024-03-22T07:30:16;42.20;;;25.67;;
40162;SDS011;25881;47.462;19.304;2024-03-22T07:32:41;40.90;;;24.57;;
40162;SDS011;25881;47.462;19.304;2024-03-22T07:35:06;44.13;;;25.83;;
40162;SDS011;25881;47.462;19.304;2024-03-22T07:37:34;38.30;;;24.38;;
40162;SDS011;25881;47.462;19.304;2024-03-22T07:40:01;40.08;;;24.20;;
40162;SDS011;25881;47.462;19.304;2024-03-22T07:42:26;40.22;;;24.50;;
40162;SDS011;25881;47.462;19.304;2024-03-22T07:44:51;43.87;;;25.17;;
40162;SDS011;25881;47.462;19.304;2024-03-22T07:47:16;47.90;;;25.73;;
40162;SDS011;25881;47.462;19.304;2024-03-22T07:49:42;39.65;;;24.45;;
40162;SDS011;25881;47.462;19.304;2024-03-22T07:52:08;36.50;;;24.50;;
40162;SDS011;25881;47.462;19.304;2024-03-22T07:54:34;39.45;;;24.75;;
40162;SDS011;25881;47.462;19.304;2024-03-22T07:56:59;38.50;;;25.77;;
40162;SDS011;25881;47.462;19.304;2024-03-22T07:59:24;39.27;;;25.03;;
40162;SDS011;25881;47.462;19.304;2024-03-22T08:01:50;44.63;;;24.98;;
40162;SDS011;25881;47.462;19.304;2024-03-22T08:04:15;37.97;;;24.15;;
40162;SDS011;25881;47.462;19.304;2024-03-22T08:06:40;37.72;;;23.40;;
40162;SDS011;25881;47.462;19.304;2024-03-22T08:09:06;36.47;;;23.93;;
40162;SDS011;25881;47.462;19.304;2024-03-22T08:11:32;36.38;;;22.98;;
40162;SDS011;25881;47.462;19.304;2024-03-22T08:13:57;33.80;;;21.60;;
40162;SDS011;25881;47.462;19.304;2024-03-22T08:16:28;34.25;;;20.98;;
40162;SDS011;25881;47.462;19.304;2024-03-22T08:18:53;32.20;;;21.50;;
40162;SDS011;25881;47.462;19.304;2024-03-22T08:21:18;34.90;;;21.70;;
40162;SDS011;25881;47.462;19.304;2024-03-22T08:23:44;32.88;;;21.92;;
40162;SDS011;25881;47.462;19.304;2024-03-22T08:26:09;30.93;;;20.73;;
40162;SDS011;25881;47.462;19.304;2024-03-22T08:28:34;30.53;;;19.67;;
40162;SDS011;25881;47.462;19.304;2024-03-22T08:31:03;33.20;;;20.40;;
40162;SDS011;25881;47.462;19.304;2024-03-22T08:33:28;35.63;;;19.92;;
40162;SDS011;25881;47.462;19.304;2024-03-22T08:35:53;32.60;;;19.87;;
40162;SDS011;25881;47.462;19.304;2024-03-22T08:38:19;34.07;;;20.87;;
40162;SDS011;25881;47.462;19.304;2024-03-22T08:40:44;30.03;;;19.97;;
40162;SDS011;25881;47.462;19.304;2024-03-22T08:43:09;30.70;;;20.33;;
40162;SDS011;25881;47.462;19.304;2024-03-22T08:45:34;29.80;;;19.95;;
40162;SDS011;25881;47.462;19.304;2024-03-22T08:48:00;33.30;;;20.25;;
40162;SDS011;25881;47.462;19.304;2024-03-22T08:50:26;38.70;;;21.15;;
40162;SDS011;25881;47.462;19.304;2024-03-22T08:52:51;31.67;;;21.23;;
40162;SDS011;25881;47.462;19.304;2024-03-22T08:55:16;31.33;;;20.75;;
40162;SDS011;25881;47.462;19.304;2024-03-22T08:57:42;35.58;;;21.90;;
40162;SDS011;25881;47.462;19.304;2024-03-22T09:00:07;37.10;;;21.73;;
40162;SDS011;25881;47.462;19.304;2024-03-22T09:02:33;35.95;;;21.13;;
40162;SDS011;25881;47.462;19.304;2024-03-22T09:04:59;31.13;;;21.50;;
40162;SDS011;25881;47.462;19.304;2024-03-22T09:07:24;36.07;;;21.17;;
40162;SDS011;25881;47.462;19.304;2024-03-22T09:09:49;32.37;;;21.77;;
40162;SDS011;25881;47.462;19.304;2024-03-22T09:12:14;36.60;;;21.43;;
40162;SDS011;25881;47.462;19.304;2024-03-22T09:14:40;33.87;;;21.77;;
40162;SDS011;25881;47.462;19.304;2024-03-22T09:17:05;32.97;;;21.50;;
40162;SDS011;25881;47.462;19.304;2024-03-22T09:19:30;30.67;;;20.47;;
40162;SDS011;25881;47.462;19.304;2024-03-22T09:21:56;31.77;;;21.60;;
40162;SDS011;25881;47.462;19.304;2024-03-22T09:24:22;33.77;;;21.87;;
40162;SDS011;25881;47.462;19.304;2024-03-22T09:26:47;34.97;;;22.53;;
40162;SDS011;25881;47.462;19.304;2024-03-22T09:29:15;31.02;;;21.48;;
40162;SDS011;25881;47.462;19.304;2024-03-22T09:31:40;30.85;;;21.02;;
40162;SDS011;25881;47.462;19.304;2024-03-22T09:34:05;31.10;;;20.63;;
40162;SDS011;25881;47.462;19.304;2024-03-22T09:36:31;33.90;;;20.43;;
40162;SDS011;25881;47.462;19.304;2024-03-22T09:39:00;39.33;;;21.00;;
40162;SDS011;25881;47.462;19.304;2024-03-22T09:41:25;30.23;;;20.00;;
40162;SDS011;25881;47.462;19.304;2024-03-22T09:43:55;34.47;;;21.37;;
40162;SDS011;25881;47.462;19.304;2024-03-22T09:46:22;32.08;;;20.23;;
40162;SDS011;25881;47.462;19.304;2024-03-22T09:48:48;29.80;;;19.73;;
40162;SDS011;25881;47.462;19.304;2024-03-22T09:51:14;29.88;;;20.10;;
40162;SDS011;25881;47.462;19.304;2024-03-22T09:53:40;30.00;;;19.77;;
40162;SDS011;25881;47.462;19.304;2024-03-22T09:56:07;32.95;;;20.33;;
40162;SDS011;25881;47.462;19.304;2024-03-22T09:58:32;32.90;;;20.43;;
40162;SDS011;25881;47.462;19.304;2024-03-22T10:00:58;29.55;;;20.27;;
40162;SDS011;25881;47.462;19.304;2024-03-22T10:03:26;28.70;;;19.83;;
40162;SDS011;25881;47.462;19.304;2024-03-22T10:05:51;31.57;;;20.43;;
40162;SDS011;25881;47.462;19.304;2024-03-22T10:08:16;31.60;;;20.47;;
40162;SDS011;25881;47.462;19.304;2024-03-22T10:10:42;30.50;;;19.83;;
40162;SDS011;25881;47.462;19.304;2024-03-22T10:13:07;31.20;;;19.58;;
40162;SDS011;25881;47.462;19.304;2024-03-22T10:15:32;26.50;;;18.30;;
40162;SDS011;25881;47.462;19.304;2024-03-22T10:17:58;26.43;;;17.50;;
40162;SDS011;25881;47.462;19.304;2024-03-22T10:20:23;22.20;;;15.88;;
40162;SDS011;25881;47.462;19.304;2024-03-22T10:22:53;23.02;;;16.27;;
40162;SDS011;25881;47.462;19.304;2024-03-22T10:25:20;24.90;;;16.50;;
40162;SDS011;25881;47.462;19.304;2024-03-22T10:27:45;27.40;;;18.70;;
40162;SDS011;25881;47.462;19.304;2024-03-22T10:30:10;23.83;;;16.27;;
40162;SDS011;25881;47.462;19.304;2024-03-22T10:32:37;26.92;;;18.67;;
40162;SDS011;25881;47.462;19.304;2024-03-22T10:35:02;30.20;;;18.40;;
40162;SDS011;25881;47.462;19.304;2024-03-22T10:37:30;26.00;;;18.27;;
40162;SDS011;25881;47.462;19.304;2024-03-22T10:39:56;24.92;;;17.42;;
40162;SDS011;25881;47.462;19.304;2024-03-22T10:42:23;27.23;;;18.23;;
40162;SDS011;25881;47.462;19.304;2024-03-22T10:44:48;24.73;;;17.90;;
40162;SDS011;25881;47.462;19.304;2024-03-22T10:47:14;26.80;;;18.80;;
40162;SDS011;25881;47.462;19.304;2024-03-22T10:49:42;21.73;;;16.00;;
40162;SDS011;25881;47.462;19.304;2024-03-22T10:52:08;26.83;;;18.63;;
40162;SDS011;25881;47.462;19.304;2024-03-22T10:54:37;26.00;;;18.90;;
40162;SDS011;25881;47.462;19.304;2024-03-22T10:57:04;23.80;;;16.80;;
40162;SDS011;25881;47.462;19.304;2024-03-22T10:59:33;26.23;;;17.83;;
40162;SDS011;25881;47.462;19.304;2024-03-22T11:02:02;26.40;;;17.40;;
40162;SDS011;25881;47.462;19.304;2024-03-22T11:04:29;27.73;;;17.50;;
40162;SDS011;25881;47.462;19.304;2024-03-22T11:06:56;25.77;;;17.58;;
40162;SDS011;25881;47.462;19.304;2024-03-22T11:09:22;22.08;;;15.57;;
40162;SDS011;25881;47.462;19.304;2024-03-22T11:11:48;19.35;;;15.75;;
40162;SDS011;25881;47.462;19.304;2024-03-22T11:14:13;21.75;;;14.68;;
40162;SDS011;25881;47.462;19.304;2024-03-22T11:16:38;22.37;;;16.20;;
40162;SDS011;25881;47.462;19.304;2024-03-22T11:19:04;22.63;;;14.03;;
40162;SDS011;25881;47.462;19.304;2024-03-22T11:21:32;27.70;;;15.40;;
40162;SDS011;25881;47.462;19.304;2024-03-22T11:24:00;23.23;;;14.88;;
40162;SDS011;25881;47.462;19.304;2024-03-22T11:26:25;21.80;;;15.55;;
40162;SDS011;25881;47.462;19.304;2024-03-22T11:28:50;21.27;;;15.53;;
40162;SDS011;25881;47.462;19.304;2024-03-22T11:31:16;27.27;;;17.07;;
40162;SDS011;25881;47.462;19.304;2024-03-22T11:33:41;23.55;;;15.15;;
40162;SDS011;25881;47.462;19.304;2024-03-22T11:36:07;23.20;;;16.38;;
40162;SDS011;25881;47.462;19.304;2024-03-22T11:38:32;23.55;;;16.65;;
40162;SDS011;25881;47.462;19.304;2024-03-22T11:40:58;22.20;;;15.90;;
40162;SDS011;25881;47.462;19.304;2024-03-22T11:43:25;20.70;;;14.85;;
40162;SDS011;25881;47.462;19.304;2024-03-22T11:45:50;22.73;;;15.27;;
40162;SDS011;25881;47.462;19.304;2024-03-22T11:48:15;18.83;;;14.07;;
40162;SDS011;25881;47.462;19.304;2024-03-22T11:50:41;22.90;;;14.98;;
40162;SDS011;25881;47.462;19.304;2024-03-22T11:53:06;20.87;;;13.60;;
40162;SDS011;25881;47.462;19.304;2024-03-22T11:55:32;19.83;;;12.93;;
40162;SDS011;25881;47.462;19.304;2024-03-22T11:57:57;13.37;;;10.00;;
40162;SDS011;25881;47.462;19.304;2024-03-22T12:00:23;13.25;;;9.18;;
40162;SDS011;25881;47.462;19.304;2024-03-22T12:02:50;14.65;;;9.57;;
40162;SDS011;25881;47.462;19.304;2024-03-22T12:05:16;16.30;;;11.75;;
40162;SDS011;25881;47.462;19.304;2024-03-22T12:07:42;16.88;;;10.15;;
40162;SDS011;25881;47.462;19.304;2024-03-22T12:10:07;14.93;;;9.37;;
40162;SDS011;25881;47.462;19.304;2024-03-22T12:12:32;18.88;;;12.07;;
40162;SDS011;25881;47.462;19.304;2024-03-22T12:14:58;17.27;;;11.70;;
40162;SDS011;25881;47.462;19.304;2024-03-22T12:17:23;17.47;;;10.20;;
40162;SDS011;25881;47.462;19.304;2024-03-22T12:19:48;12.10;;;8.03;;
40162;SDS011;25881;47.462;19.304;2024-03-22T12:22:13;17.60;;;10.60;;
40162;SDS011;25881;47.462;19.304;2024-03-22T12:24:39;15.50;;;10.75;;
40162;SDS011;25881;47.462;19.304;2024-03-22T12:27:04;17.00;;;10.65;;
40162;SDS011;25881;47.462;19.304;2024-03-22T12:29:32;17.33;;;10.70;;
40162;SDS011;25881;47.462;19.304;2024-03-22T12:31:57;17.05;;;9.80;;
40162;SDS011;25881;47.462;19.304;2024-03-22T12:34:25;14.40;;;10.25;;
40162;SDS011;25881;47.462;19.304;2024-03-22T12:36:51;17.30;;;11.23;;
40162;SDS011;25881;47.462;19.304;2024-03-22T12:39:16;13.20;;;10.30;;
40162;SDS011;25881;47.462;19.304;2024-03-22T12:41:41;16.30;;;11.77;;
40162;SDS011;25881;47.462;19.304;2024-03-22T12:44:07;11.90;;;9.03;;
40162;SDS011;25881;47.462;19.304;2024-03-22T12:46:32;16.63;;;11.52;;
40162;SDS011;25881;47.462;19.304;2024-03-22T12:48:57;18.27;;;11.32;;
40162;SDS011;25881;47.462;19.304;2024-03-22T12:51:23;15.20;;;10.40;;
40162;SDS011;25881;47.462;19.304;2024-03-22T12:53:49;13.88;;;10.23;;
40162;SDS011;25881;47.462;19.304;2024-03-22T12:56:14;13.82;;;9.80;;
40162;SDS011;25881;47.462;19.304;2024-03-22T12:58:39;12.50;;;9.63;;
40162;SDS011;25881;47.462;19.304;2024-03-22T13:01:05;13.88;;;9.95;;
40162;SDS011;25881;47.462;19.304;2024-03-22T13:03:31;12.80;;;9.20;;
40162;SDS011;25881;47.462;19.304;2024-03-22T13:05:56;13.85;;;9.18;;
40162;SDS011;25881;47.462;19.304;2024-03-22T13:08:21;20.70;;;10.20;;
40162;SDS011;25881;47.462;19.304;2024-03-22T13:10:47;16.13;;;10.63;;
40162;SDS011;25881;47.462;19.304;2024-03-22T13:13:13;14.23;;;11.30;;
40162;SDS011;25881;47.462;19.304;2024-03-22T13:15:40;14.77;;;10.88;;
40162;SDS011;25881;47.462;19.304;2024-03-22T13:18:06;20.67;;;11.30;;
40162;SDS011;25881;47.462;19.304;2024-03-22T13:20:31;18.67;;;11.77;;
40162;SDS011;25881;47.462;19.304;2024-03-22T13:22:57;17.70;;;12.20;;
40162;SDS011;25881;47.462;19.304;2024-03-22T13:25:22;17.37;;;11.63;;
40162;SDS011;25881;47.462;19.304;2024-03-22T13:27:47;15.37;;;11.53;;
40162;SDS011;25881;47.462;19.304;2024-03-22T13:30:13;14.73;;;11.38;;
40162;SDS011;25881;47.462;19.304;2024-03-22T13:32:39;18.65;;;13.85;;
40162;SDS011;25881;47.462;19.304;2024-03-22T13:35:05;17.75;;;13.57;;
40162;SDS011;25881;47.462;19.304;2024-03-22T13:37:31;25.05;;;13.95;;
40162;SDS011;25881;47.462;19.304;2024-03-22T13:39:56;17.73;;;13.13;;
40162;SDS011;25881;47.462;19.304;2024-03-22T13:42:21;17.08;;;12.85;;
40162;SDS011;25881;47.462;19.304;2024-03-22T13:44:46;17.17;;;13.13;;
40162;SDS011;25881;47.462;19.304;2024-03-22T13:47:12;19.73;;;11.77;;
40162;SDS011;25881;47.462;19.304;2024-03-22T13:49:37;16.87;;;13.07;;
40162;SDS011;25881;47.462;19.304;2024-03-22T13:52:06;15.13;;;11.35;;
40162;SDS011;25881;47.462;19.304;2024-03-22T13:54:31;16.92;;;11.70;;
40162;SDS011;25881;47.462;19.304;2024-03-22T13:56:56;16.57;;;12.03;;
40162;SDS011;25881;47.462;19.304;2024-03-22T13:59:21;19.37;;;13.23;;
40162;SDS011;25881;47.462;19.304;2024-03-22T14:01:47;17.77;;;13.77;;